Time;durP1;ratioP1;P1;durP2;ratioP2;P2;SDS_P1;SDS_P2;PMS_P1;PMS_P2;Temp;Humidity;BMP_temperature;BMP_pressure;BME280_temperature;BME280_humidity;BME280_pressure;Samples;Min_cycle;Max_cycle;Signal;HPM_P1;HPM_P2
2023/09/22 00:01:55;;;;;;;36.67;34.47;;;15.10;99.90;;;;;;5054479;28;20067;-67
2023/09/22 00:04:21;;;;;;;31.90;29.42;;;15.10;99.90;;;;;;5055323;28;20387;-67
2023/09/22 00:06:47;;;;;;;59.28;55.75;;;15.10;99.90;;;;;;5054257;28;20029;-68
2023/09/22 00:09:13;;;;;;;74.10;70.10;;;15.10;99.90;;;;;;5054879;28;20025;-68
2023/09/22 00:11:39;;;;;;;54.67;51.63;;;15.00;99.90;;;;;;5054638;28;20072;-68
2023/09/22 00:14:07;;;;;;;40.88;38.25;;;15.10;99.90;;;;;;5054813;28;20060;-68
2023/09/22 00:16:34;;;;;;;52.70;49.65;;;15.10;99.90;;;;;;5053843;28;20049;-68
2023/09/22 00:19:05;;;;;;;38.95;36.20;;;15.00;99.90;;;;;;5054697;28;20037;-73
2023/09/22 00:21:32;;;;;;;30.60;28.45;;;15.00;99.90;;;;;;5054221;28;20514;-72
2023/09/22 00:23:58;;;;;;;29.13;27.20;;;15.00;99.90;;;;;;5053567;28;20032;-73
2023/09/22 00:26:25;;;;;;;31.10;29.27;;;15.00;99.90;;;;;;5054229;28;20029;-73
2023/09/22 00:28:51;;;;;;;26.45;24.45;;;15.00;99.90;;;;;;5055089;28;20045;-72
2023/09/22 00:31:17;;;;;;;42.38;39.45;;;15.00;99.90;;;;;;5053977;28;20472;-73
2023/09/22 00:33:43;;;;;;;38.10;35.65;;;15.00;99.90;;;;;;5054673;28;20395;-73
2023/09/22 00:36:09;;;;;;;46.90;43.97;;;15.00;99.90;;;;;;5053046;28;20052;-72
2023/09/22 00:38:36;;;;;;;43.83;40.90;;;15.00;99.90;;;;;;5034316;28;20029;-73
2023/09/22 00:41:02;;;;;;;33.95;31.40;;;15.00;99.90;;;;;;5041476;28;20035;-73
2023/09/22 00:43:28;;;;;;;34.25;32.00;;;15.00;99.90;;;;;;5054278;28;20033;-73
2023/09/22 00:45:54;;;;;;;35.53;32.72;;;15.00;99.90;;;;;;5053979;28;20036;-73
2023/09/22 00:48:22;;;;;;;34.72;32.33;;;15.00;99.90;;;;;;5054084;28;20048;-73
2023/09/22 00:50:51;;;;;;;33.65;31.27;;;14.90;99.90;;;;;;5053804;28;20048;-73
2023/09/22 00:53:17;;;;;;;37.70;35.42;;;15.00;99.90;;;;;;5032719;28;20037;-73
2023/09/22 00:55:45;;;;;;;34.97;32.63;;;15.00;99.90;;;;;;5038356;28;20025;-73
2023/09/22 00:58:11;;;;;;;35.38;32.85;;;15.00;99.90;;;;;;5052674;28;20060;-73
2023/09/22 01:00:37;;;;;;;39.60;37.10;;;15.00;99.90;;;;;;5052049;28;20043;-73
2023/09/22 01:03:04;;;;;;;53.05;49.75;;;15.10;99.90;;;;;;5051911;28;20055;-73
2023/09/22 01:05:32;;;;;;;59.70;56.17;;;15.00;99.90;;;;;;5053044;28;20033;-73
2023/09/22 01:07:58;;;;;;;71.18;67.35;;;15.00;99.90;;;;;;5052716;28;20045;-73
2023/09/22 01:10:34;;;;;;;76.13;71.97;;;15.00;99.90;;;;;;5053541;28;20021;-73
2023/09/22 01:13:00;;;;;;;51.58;48.53;;;15.00;99.90;;;;;;5053701;28;20044;-72
2023/09/22 01:15:27;;;;;;;48.72;45.95;;;14.80;99.90;;;;;;5052847;28;20048;-73
2023/09/22 01:17:53;;;;;;;59.28;55.55;;;14.90;99.90;;;;;;5053556;28;20060;-73
2023/09/22 01:20:19;;;;;;;45.20;41.85;;;14.90;99.90;;;;;;5052681;28;20025;-73
2023/09/22 01:22:45;;;;;;;45.70;43.05;;;15.00;99.90;;;;;;5053905;28;20106;-73
2023/09/22 01:25:11;;;;;;;47.05;43.97;;;15.00;99.90;;;;;;5053115;28;20032;-73
2023/09/22 01:27:38;;;;;;;50.15;47.38;;;15.10;99.90;;;;;;5033986;28;20136;-73
2023/09/22 01:30:05;;;;;;;46.17;43.33;;;15.10;99.90;;;;;;5033278;28;20038;-73
2023/09/22 01:32:32;;;;;;;40.33;37.10;;;15.10;99.90;;;;;;5052736;28;20055;-73
2023/09/22 01:34:58;;;;;;;43.97;41.38;;;15.10;99.90;;;;;;5053304;28;20041;-73
2023/09/22 01:37:28;;;;;;;52.72;49.38;;;15.10;99.90;;;;;;5052840;28;20053;-73
2023/09/22 01:39:57;;;;;;;36.97;34.13;;;15.10;99.90;;;;;;5051732;28;20044;-73
2023/09/22 01:42:24;;;;;;;41.97;39.30;;;15.20;99.90;;;;;;5051827;28;20298;-73
2023/09/22 01:44:50;;;;;;;36.58;34.47;;;15.20;99.90;;;;;;5053114;28;20049;-73
2023/09/22 01:47:16;;;;;;;45.22;42.38;;;15.20;99.90;;;;;;5052279;28;20040;-73
2023/09/22 01:49:42;;;;;;;42.55;39.92;;;15.10;99.90;;;;;;5053176;28;20475;-73
2023/09/22 01:52:08;;;;;;;48.85;45.45;;;15.10;99.90;;;;;;5052521;28;20032;-72
2023/09/22 01:54:35;;;;;;;44.67;41.58;;;15.00;99.90;;;;;;5052909;28;20028;-74
2023/09/22 01:57:01;;;;;;;47.55;44.75;;;15.10;99.90;;;;;;5052433;28;20049;-73
2023/09/22 01:59:27;;;;;;;47.47;43.85;;;15.20;99.90;;;;;;5052773;28;20392;-68
2023/09/22 02:01:53;;;;;;;48.38;45.47;;;15.20;99.90;;;;;;5051976;28;20037;-68
2023/09/22 02:04:19;;;;;;;44.17;41.58;;;15.20;99.90;;;;;;5052296;28;20033;-68
2023/09/22 02:06:45;;;;;;;59.33;55.65;;;15.10;99.90;;;;;;5052286;28;20048;-68
2023/09/22 02:09:11;;;;;;;51.45;47.55;;;14.90;99.90;;;;;;5052754;28;20033;-68
2023/09/22 02:11:37;;;;;;;51.03;47.97;;;14.70;99.90;;;;;;5052357;28;20052;-68
2023/09/22 02:14:03;;;;;;;45.50;42.90;;;14.60;99.90;;;;;;5052306;28;20048;-68
2023/09/22 02:16:30;;;;;;;52.65;49.42;;;14.60;99.90;;;;;;5051400;28;20049;-68
2023/09/22 02:18:57;;;;;;;45.42;42.30;;;14.60;99.90;;;;;;5052063;28;20020;-68
2023/09/22 02:21:23;;;;;;;37.53;34.97;;;14.60;99.90;;;;;;5052162;28;20033;-68
2023/09/22 02:23:49;;;;;;;48.92;46.03;;;14.60;99.90;;;;;;5052540;28;20048;-67
2023/09/22 02:26:15;;;;;;;50.20;47.20;;;14.60;99.90;;;;;;5050845;28;20040;-67
2023/09/22 02:28:41;;;;;;;36.28;33.97;;;14.60;99.90;;;;;;5052524;28;20040;-68
2023/09/22 02:31:07;;;;;;;65.43;61.88;;;14.60;99.90;;;;;;5051378;28;20510;-68
2023/09/22 02:33:33;;;;;;;49.42;46.83;;;14.70;99.90;;;;;;5051967;28;20029;-68
2023/09/22 02:36:00;;;;;;;61.53;58.42;;;14.70;99.90;;;;;;5051724;28;20398;-67
2023/09/22 02:38:26;;;;;;;41.25;38.95;;;14.70;99.90;;;;;;5032615;28;20038;-67
2023/09/22 02:40:52;;;;;;;47.28;44.47;;;14.80;99.90;;;;;;5038156;28;20029;-67
2023/09/22 02:43:18;;;;;;;36.50;34.50;;;14.80;99.90;;;;;;5052011;28;20037;-67
2023/09/22 02:45:44;;;;;;;54.25;51.40;;;14.90;99.90;;;;;;5050236;28;20048;-68
2023/09/22 02:48:11;;;;;;;78.38;74.45;;;14.90;99.90;;;;;;5051746;28;20387;-67
2023/09/22 02:50:37;;;;;;;85.18;81.03;;;14.90;99.90;;;;;;5052075;28;20060;-67
2023/09/22 02:53:03;;;;;;;63.50;60.45;;;14.80;99.90;;;;;;5051875;28;20029;-67
2023/09/22 02:55:31;;;;;;;64.97;61.67;;;14.90;99.90;;;;;;5052038;28;20040;-67
2023/09/22 02:57:57;;;;;;;72.55;68.85;;;14.90;99.90;;;;;;5066704;28;20053;-68
2023/09/22 03:00:23;;;;;;;68.72;65.25;;;14.90;99.90;;;;;;5051225;28;20048;-68
2023/09/22 03:02:49;;;;;;;86.60;82.28;;;14.80;99.90;;;;;;5051564;28;20033;-67
2023/09/22 03:05:16;;;;;;;39.33;36.95;;;14.80;99.90;;;;;;5050603;28;20036;-67
2023/09/22 03:07:43;;;;;;;36.47;34.47;;;14.70;99.90;;;;;;5052102;28;20033;-68
2023/09/22 03:10:10;;;;;;;45.15;42.65;;;14.80;99.90;;;;;;5050596;28;20041;-67
2023/09/22 03:12:37;;;;;;;38.67;36.47;;;14.80;99.90;;;;;;5031515;28;20040;-67
2023/09/22 03:15:05;;;;;;;43.42;41.17;;;14.80;99.90;;;;;;5039623;28;20380;-68
2023/09/22 03:17:31;;;;;;;35.33;33.47;;;14.70;99.90;;;;;;5050884;28;20048;-67
2023/09/22 03:19:58;;;;;;;40.20;38.05;;;14.60;99.90;;;;;;5052010;28;20037;-68
2023/09/22 03:22:27;;;;;;;43.35;40.72;;;14.70;99.90;;;;;;5051468;28;20036;-68
2023/09/22 03:24:54;;;;;;;42.00;39.70;;;14.70;99.90;;;;;;5052151;28;20491;-67
2023/09/22 03:27:20;;;;;;;39.90;37.60;;;14.80;99.90;;;;;;5053672;28;20401;-67
2023/09/22 03:29:46;;;;;;;36.85;34.85;;;14.80;99.90;;;;;;5055299;28;20036;-68
2023/09/22 03:32:14;;;;;;;39.15;36.58;;;14.70;99.90;;;;;;5054761;28;20048;-67
2023/09/22 03:34:40;;;;;;;36.55;34.50;;;14.60;99.90;;;;;;5055598;28;20029;-67
2023/09/22 03:37:09;;;;;;;33.25;31.05;;;14.60;99.90;;;;;;5046595;28;20037;-67
2023/09/22 03:39:36;;;;;;;31.83;29.83;;;14.60;99.90;;;;;;5035334;28;20045;-67
2023/09/22 03:42:02;;;;;;;32.78;30.48;;;14.60;99.90;;;;;;5050937;28;20494;-67
2023/09/22 03:44:28;;;;;;;32.63;30.63;;;14.60;99.90;;;;;;5054985;28;20492;-68
2023/09/22 03:46:54;;;;;;;33.10;31.23;;;14.60;99.90;;;;;;5054377;28;20041;-73
2023/09/22 03:49:20;;;;;;;36.15;33.80;;;14.60;99.90;;;;;;5055300;28;20033;-74
2023/09/22 03:51:46;;;;;;;36.47;34.13;;;14.60;99.90;;;;;;5054925;28;20048;-74
2023/09/22 03:54:13;;;;;;;36.85;34.35;;;14.60;99.90;;;;;;5055307;28;20391;-72
2023/09/22 03:56:39;;;;;;;35.22;32.95;;;14.60;99.90;;;;;;5054681;28;20036;-73
2023/09/22 03:59:05;;;;;;;32.15;29.98;;;14.60;99.90;;;;;;5054937;28;20029;-73
2023/09/22 04:01:32;;;;;;;32.60;30.50;;;14.50;99.90;;;;;;5069376;28;20068;-73
2023/09/22 04:03:58;;;;;;;33.25;31.15;;;14.40;99.90;;;;;;5053896;28;20032;-73
2023/09/22 04:06:24;;;;;;;33.83;31.40;;;14.40;99.90;;;;;;5054509;28;20036;-73
2023/09/22 04:08:51;;;;;;;46.30;43.33;;;14.40;99.90;;;;;;5054870;28;20036;-72
2023/09/22 04:11:17;;;;;;;38.47;36.10;;;14.40;99.90;;;;;;5054831;28;20048;-73
2023/09/22 04:13:44;;;;;;;41.00;38.30;;;14.40;99.90;;;;;;5054330;28;20068;-73
2023/09/22 04:16:10;;;;;;;42.92;40.30;;;14.40;99.90;;;;;;5054309;28;20041;-72
2023/09/22 04:18:36;;;;;;;55.58;52.25;;;14.40;99.90;;;;;;5054876;28;20040;-73
2023/09/22 04:21:04;;;;;;;42.85;40.42;;;14.40;99.90;;;;;;5054408;28;20025;-73
2023/09/22 04:23:31;;;;;;;47.20;44.45;;;14.40;99.90;;;;;;5054922;28;20048;-73
2023/09/22 04:26:09;;;;;;;48.03;45.22;;;14.40;99.90;;;;;;5052685;28;20041;-73
2023/09/22 04:28:36;;;;;;;53.10;49.83;;;14.40;99.90;;;;;;5054029;28;20056;-73
2023/09/22 04:31:02;;;;;;;42.85;40.50;;;14.40;99.90;;;;;;5054026;28;20040;-73
2023/09/22 04:33:28;;;;;;;42.30;39.67;;;14.40;99.90;;;;;;5054622;28;20040;-72
2023/09/22 04:35:55;;;;;;;52.50;49.47;;;14.40;99.90;;;;;;5054102;28;20383;-73
2023/09/22 04:38:21;;;;;;;44.70;42.15;;;14.40;99.90;;;;;;5035346;28;20038;-73
2023/09/22 04:40:47;;;;;;;43.90;41.53;;;14.30;99.90;;;;;;5039368;28;20025;-72
2023/09/22 04:43:13;;;;;;;44.85;42.15;;;14.30;99.90;;;;;;5054104;28;20037;-73
2023/09/22 04:45:41;;;;;;;43.97;41.33;;;14.20;99.90;;;;;;5053997;28;20037;-73
2023/09/22 04:48:08;;;;;;;43.25;40.33;;;14.30;99.90;;;;;;5054533;28;20048;-74
2023/09/22 04:50:34;;;;;;;41.13;38.72;;;14.20;99.90;;;;;;5053775;28;20045;-68
2023/09/22 04:53:00;;;;;;;49.40;46.20;;;14.30;99.90;;;;;;5054063;28;20375;-67
2023/09/22 04:55:29;;;;;;;43.22;40.80;;;14.30;99.90;;;;;;5053635;28;20021;-68
2023/09/22 04:57:58;;;;;;;45.20;42.63;;;14.30;99.90;;;;;;5053926;28;20044;-67
2023/09/22 05:00:27;;;;;;;45.85;43.30;;;14.30;99.90;;;;;;5053227;28;20387;-67
2023/09/22 05:02:53;;;;;;;46.92;43.88;;;14.30;99.90;;;;;;5052608;28;20039;-69
2023/09/22 05:05:19;;;;;;;38.00;35.83;;;14.40;99.90;;;;;;5052302;28;20486;-70
2023/09/22 05:07:46;;;;;;;44.13;41.65;;;14.30;99.90;;;;;;5052524;28;20044;-67
2023/09/22 05:10:12;;;;;;;37.88;35.50;;;14.30;99.90;;;;;;5053490;28;20047;-67
2023/09/22 05:12:38;;;;;;;35.85;33.90;;;14.30;99.90;;;;;;5053615;28;20052;-68
2023/09/22 05:15:05;;;;;;;34.15;32.17;;;14.20;99.90;;;;;;5053100;28;20044;-68
2023/09/22 05:17:31;;;;;;;35.42;33.40;;;14.30;99.90;;;;;;5053199;28;20033;-67
2023/09/22 05:19:58;;;;;;;32.13;30.30;;;14.20;99.90;;;;;;5052393;28;20059;-67
2023/09/22 05:22:24;;;;;;;36.00;33.88;;;14.20;99.90;;;;;;5053669;28;20037;-67
2023/09/22 05:24:50;;;;;;;45.60;43.05;;;14.10;99.90;;;;;;5053341;28;20028;-67
2023/09/22 05:27:16;;;;;;;40.58;38.17;;;14.00;99.90;;;;;;5052650;28;20044;-67
2023/09/22 05:29:43;;;;;;;34.15;32.25;;;14.00;99.90;;;;;;5053329;28;20037;-67
2023/09/22 05:32:09;;;;;;;36.90;34.90;;;14.10;99.90;;;;;;5052013;28;20040;-67
2023/09/22 05:34:36;;;;;;;35.60;33.70;;;14.00;99.90;;;;;;5068507;28;20045;-68
2023/09/22 05:37:02;;;;;;;33.58;31.85;;;14.00;99.90;;;;;;5047262;28;20049;-67
2023/09/22 05:39:28;;;;;;;38.45;36.17;;;14.00;99.90;;;;;;5053205;28;20036;-67
2023/09/22 05:41:54;;;;;;;36.05;33.78;;;14.10;99.90;;;;;;5052832;28;20033;-67
2023/09/22 05:44:20;;;;;;;34.88;32.92;;;14.00;99.90;;;;;;5053089;28;20025;-67
2023/09/22 05:46:46;;;;;;;40.17;37.78;;;14.10;99.90;;;;;;5052668;28;20415;-67
2023/09/22 05:49:14;;;;;;;34.83;33.03;;;14.10;99.90;;;;;;5051027;28;20052;-67
2023/09/22 05:51:41;;;;;;;35.40;33.47;;;14.10;99.90;;;;;;5053388;28;20048;-68
2023/09/22 05:54:08;;;;;;;33.75;32.05;;;14.00;99.90;;;;;;5053038;28;20028;-67
2023/09/22 05:56:35;;;;;;;45.92;43.42;;;14.00;99.90;;;;;;5051154;28;20045;-67
2023/09/22 05:59:03;;;;;;;38.45;36.45;;;13.80;99.90;;;;;;5053224;28;20056;-73
2023/09/22 06:01:30;;;;;;;40.85;38.65;;;13.70;99.90;;;;;;5052555;28;20040;-72
2023/09/22 06:03:57;;;;;;;45.58;43.10;;;13.60;99.90;;;;;;5053324;28;20041;-73
2023/09/22 06:06:23;;;;;;;39.53;37.40;;;13.50;99.90;;;;;;5052846;28;20056;-73
2023/09/22 06:08:50;;;;;;;41.60;39.33;;;13.60;99.90;;;;;;5052967;28;20048;-72
2023/09/22 06:11:17;;;;;;;38.50;36.55;;;13.60;99.90;;;;;;5052521;28;20044;-73
2023/09/22 06:13:43;;;;;;;41.85;39.70;;;13.60;99.90;;;;;;5053003;28;20071;-73
2023/09/22 06:16:09;;;;;;;36.72;34.72;;;13.60;99.90;;;;;;5052087;28;20025;-73
2023/09/22 06:18:37;;;;;;;52.55;49.75;;;13.60;99.90;;;;;;5052698;28;20495;-73
2023/09/22 06:21:05;;;;;;;38.88;36.88;;;13.60;99.90;;;;;;5051137;28;20387;-73
2023/09/22 06:23:31;;;;;;;51.20;48.55;;;13.60;99.90;;;;;;5052698;28;20033;-73
2023/09/22 06:26:10;;;;;;;42.35;40.17;;;13.60;99.90;;;;;;5052323;28;20037;-73
2023/09/22 06:28:37;;;;;;;42.58;40.38;;;13.60;99.90;;;;;;5052325;28;20048;-73
2023/09/22 06:31:04;;;;;;;37.65;35.75;;;13.60;99.90;;;;;;5051936;28;20029;-73
2023/09/22 06:33:30;;;;;;;40.10;37.90;;;13.50;99.90;;;;;;5052419;28;20029;-73
2023/09/22 06:35:57;;;;;;;33.88;31.90;;;13.60;99.90;;;;;;5050802;28;20426;-73
2023/09/22 06:38:23;;;;;;;45.13;42.55;;;13.70;99.90;;;;;;5050743;28;20041;-73
2023/09/22 06:40:54;;;;;;;73.97;70.43;;;14.00;99.90;;;;;;5052569;28;20033;-72
2023/09/22 06:43:23;;;;;;;;;;;14.30;99.90;;;;;;5052927;28;20044;-73
2023/09/22 06:45:52;;;;;;;35.03;32.97;;;14.60;99.90;;;;;;5051929;28;19909;-73
2023/09/22 06:48:27;;;;;;;40.67;38.63;;;14.60;99.90;;;;;;5052114;28;20052;-73
2023/09/22 06:50:54;;;;;;;37.28;35.33;;;14.80;99.90;;;;;;5052184;28;20028;-72
2023/09/22 06:53:21;;;;;;;41.30;38.85;;;15.10;99.90;;;;;;5051699;28;20029;-73
2023/09/22 06:55:48;;;;;;;40.03;37.90;;;15.30;99.90;;;;;;5052456;28;20044;-73
2023/09/22 06:58:14;;;;;;;28.55;26.95;;;15.40;99.90;;;;;;5052470;28;20037;-73
2023/09/22 07:00:40;;;;;;;47.35;44.75;;;15.50;99.90;;;;;;5051606;28;20033;-73
2023/09/22 07:03:08;;;;;;;34.75;32.92;;;15.60;99.90;;;;;;5055227;28;20040;-73
2023/09/22 07:05:34;;;;;;;37.72;35.78;;;15.70;99.90;;;;;;5056100;28;20052;-68
2023/09/22 07:08:03;;;;;;;31.08;29.55;;;15.90;99.90;;;;;;5055552;28;20049;-68
2023/09/22 07:10:30;;;;;;;36.58;34.70;;;16.00;99.90;;;;;;5056487;28;20468;-68
2023/09/22 07:12:58;;;;;;;44.58;42.38;;;16.10;99.90;;;;;;5056046;28;20391;-68
2023/09/22 07:15:24;;;;;;;59.85;56.75;;;16.30;99.90;;;;;;5055248;28;20045;-68
2023/09/22 07:17:51;;;;;;;83.45;79.30;;;16.40;99.90;;;;;;5054819;28;20037;-68
2023/09/22 07:20:17;;;;;;;44.67;42.40;;;16.50;99.90;;;;;;5056123;28;20041;-68
2023/09/22 07:22:44;;;;;;;58.38;55.50;;;16.60;99.90;;;;;;5055839;28;20407;-68
2023/09/22 07:25:11;;;;;;;63.15;60.13;;;16.60;99.90;;;;;;5054437;28;20045;-68
2023/09/22 07:27:39;;;;;;;57.15;54.30;;;16.60;99.90;;;;;;5053508;28;20056;-68
2023/09/22 07:30:10;;;;;;;64.85;61.55;;;16.70;99.90;;;;;;5055410;28;20040;-69
2023/09/22 07:32:38;;;;;;;58.25;55.28;;;16.60;99.90;;;;;;5055760;28;20029;-68
2023/09/22 07:35:04;;;;;;;59.83;56.80;;;16.50;99.90;;;;;;5055564;28;20025;-68
2023/09/22 07:37:30;;;;;;;72.88;69.40;;;16.50;99.90;;;;;;5054914;28;20028;-68
2023/09/22 07:39:56;;;;;;;95.50;90.80;;;16.60;99.90;;;;;;5055470;28;20032;-68
2023/09/22 07:42:23;;;;;;;85.63;81.45;;;16.70;99.90;;;;;;5055369;28;20036;-68
2023/09/22 07:44:49;;;;;;;77.78;74.00;;;16.90;99.90;;;;;;5055427;28;20025;-68
2023/09/22 07:47:15;;;;;;;89.03;84.57;;;17.00;99.90;;;;;;5054796;28;20044;-68
2023/09/22 07:49:42;;;;;;;114.90;109.25;;;17.20;99.90;;;;;;5055200;28;20036;-68
2023/09/22 07:52:11;;;;;;;119.65;113.93;;;17.40;99.90;;;;;;5054940;28;20495;-68
2023/09/22 07:54:37;;;;;;;112.55;107.15;;;17.50;99.90;;;;;;5054948;28;20037;-68
2023/09/22 07:57:04;;;;;;;135.05;128.35;;;17.50;99.90;;;;;;5055185;28;20490;-68
2023/09/22 07:59:30;;;;;;;128.77;122.30;;;17.50;99.90;;;;;;5054929;28;20032;-68
2023/09/22 08:01:59;;;;;;;116.72;110.93;;;17.50;99.90;;;;;;5054451;28;20036;-68
2023/09/22 08:04:26;;;;;;;122.68;116.47;;;17.50;99.90;;;;;;5054639;28;20037;-68
2023/09/22 08:06:53;;;;;;;107.82;102.68;;;17.60;99.90;;;;;;5036401;28;20041;-68
2023/09/22 08:09:20;;;;;;;149.52;142.27;;;17.60;99.90;;;;;;5054927;28;20052;-68
2023/09/22 08:11:46;;;;;;;152.48;145.00;;;17.60;99.90;;;;;;5054871;28;20462;-68
2023/09/22 08:14:12;;;;;;;163.10;155.25;;;17.70;99.90;;;;;;5054330;28;20411;-68
2023/09/22 08:16:38;;;;;;;171.55;163.18;;;17.70;99.90;;;;;;5054371;28;20040;-68
2023/09/22 08:19:10;;;;;;;131.70;125.35;;;17.70;99.90;;;;;;5054892;28;20033;-68
2023/09/22 08:21:40;;;;;;;150.07;142.73;;;17.90;99.90;;;;;;5054076;28;20025;-68
2023/09/22 08:24:07;;;;;;;141.82;134.98;;;18.00;99.90;;;;;;5054886;28;20506;-68
2023/09/22 08:26:34;;;;;;;173.80;165.25;;;17.90;99.90;;;;;;5054523;28;20472;-68
2023/09/22 08:29:00;;;;;;;153.60;146.00;;;17.90;99.90;;;;;;5054654;28;20064;-68
2023/09/22 08:31:27;;;;;;;162.07;154.32;;;17.90;99.90;;;;;;5052844;28;20029;-68
2023/09/22 08:33:53;;;;;;;146.48;139.43;;;17.80;99.90;;;;;;5054460;28;20048;-73
2023/09/22 08:36:19;;;;;;;152.27;144.77;;;17.80;99.90;;;;;;5053787;28;20033;-73
2023/09/22 08:38:46;;;;;;;136.02;129.13;;;17.80;99.90;;;;;;5062243;28;20032;-72
2023/09/22 08:41:12;;;;;;;142.38;135.30;;;17.80;99.90;;;;;;5072091;28;20052;-72
2023/09/22 08:43:40;;;;;;;160.65;152.65;;;18.00;99.90;;;;;;5073330;28;20024;-70
2023/09/22 08:46:06;;;;;;;137.98;131.20;;;18.10;99.90;;;;;;5072506;28;20475;-72
2023/09/22 08:48:32;;;;;;;164.48;156.18;;;18.20;99.90;;;;;;5074156;28;20044;-72
2023/09/22 08:50:58;;;;;;;180.48;171.52;;;18.20;99.90;;;;;;5071952;28;20020;-72
2023/09/22 08:53:24;;;;;;;116.00;110.40;;;18.10;99.90;;;;;;5073830;28;20383;-72
2023/09/22 08:55:51;;;;;;;88.95;84.63;;;18.10;99.90;;;;;;5074429;28;20467;-72
2023/09/22 08:58:20;;;;;;;94.85;90.25;;;18.20;99.90;;;;;;5065713;28;20040;-72
2023/09/22 09:00:53;;;;;;;98.72;93.75;;;18.30;99.90;;;;;;5073699;28;20032;-71
2023/09/22 09:03:20;;;;;;;128.98;122.35;;;18.40;99.90;;;;;;5073448;28;20033;-72
2023/09/22 09:05:46;;;;;;;137.25;130.50;;;18.60;99.90;;;;;;5073938;28;20045;-71
2023/09/22 09:08:14;;;;;;;107.07;101.93;;;18.70;99.90;;;;;;5073695;28;20111;-70
2023/09/22 09:10:41;;;;;;;137.02;130.18;;;18.70;99.90;;;;;;5074004;28;20033;-71
2023/09/22 09:13:07;;;;;;;115.70;110.15;;;18.80;99.90;;;;;;5074226;28;20036;-71
2023/09/22 09:15:41;;;;;;;126.25;120.18;;;18.90;99.90;;;;;;5071874;28;20040;-71
2023/09/22 09:18:11;;;;;;;125.78;119.40;;;19.00;99.90;;;;;;5073735;28;20055;-71
2023/09/22 09:20:41;;;;;;;132.85;126.47;;;19.00;99.90;;;;;;5073390;28;20033;-71
2023/09/22 09:23:25;;;;;;;106.45;101.25;;;18.90;99.90;;;;;;5060807;28;20037;-71
2023/09/22 09:25:55;;;;;;;107.43;102.13;;;18.80;99.90;;;;;;5052725;28;20482;-71
2023/09/22 09:28:22;;;;;;;124.93;118.78;;;18.70;99.90;;;;;;5051996;28;20406;-71
2023/09/22 09:31:07;;;;;;;138.20;131.40;;;18.50;99.90;;;;;;5053085;28;20029;-70
2023/09/22 09:33:33;;;;;;;114.50;108.95;;;18.50;99.90;;;;;;5051856;28;20047;-70
2023/09/22 09:35:59;;;;;;;112.90;107.25;;;18.60;99.90;;;;;;5053340;28;20033;-68
2023/09/22 09:38:29;;;;;;;127.65;121.13;;;18.50;99.90;;;;;;5053111;28;20384;-68
2023/09/22 09:40:56;;;;;;;125.00;118.78;;;18.40;99.90;;;;;;5053397;28;20040;-68
2023/09/22 09:43:22;;;;;;;108.38;103.03;;;18.20;99.90;;;;;;5052752;28;20037;-68
2023/09/22 09:45:56;;;;;;;115.68;109.82;;;18.20;99.90;;;;;;5052618;28;20037;-68
2023/09/22 09:48:22;;;;;;;111.28;105.60;;;18.20;99.90;;;;;;5052785;28;20051;-68
2023/09/22 09:50:50;;;;;;;108.35;103.10;;;18.30;99.90;;;;;;5051772;28;20036;-68
2023/09/22 09:53:31;;;;;;;113.40;107.85;;;18.30;99.90;;;;;;5051303;28;20044;-68
2023/09/22 09:56:02;;;;;;;119.13;113.25;;;18.40;99.90;;;;;;5051668;28;20554;-68
2023/09/22 09:58:31;;;;;;;117.47;111.75;;;18.50;99.90;;;;;;5052766;28;20080;-68
2023/09/22 10:00:57;;;;;;;114.10;108.50;;;18.60;99.90;;;;;;5052039;28;20032;-69
2023/09/22 10:03:26;;;;;;;122.00;116.10;;;18.60;99.90;;;;;;5052426;28;20387;-68
2023/09/22 10:05:55;;;;;;;117.05;111.25;;;18.70;99.90;;;;;;5052601;28;20017;-68
2023/09/22 10:08:26;;;;;;;94.45;89.65;;;18.80;99.90;;;;;;5052719;28;20049;-68
2023/09/22 10:10:53;;;;;;;;;;;19.00;99.90;;;;;;5051019;28;20044;-68
2023/09/22 10:13:19;;;;;;;202.30;192.68;;;19.00;99.90;;;;;;5051479;28;20351;-68
2023/09/22 10:16:01;;;;;;;163.40;155.50;;;18.90;99.90;;;;;;5050613;28;20108;-68
2023/09/22 10:18:46;;;;;;;110.95;105.70;;;18.70;99.90;;;;;;5052579;28;20463;-68
2023/09/22 10:21:52;;;;;;;136.77;130.05;;;18.50;99.90;;;;;;5052383;28;20383;-68
2023/09/22 10:24:23;;;;;;;123.43;117.38;;;18.40;99.90;;;;;;4994432;28;20033;-68
2023/09/22 10:27:03;;;;;;;121.80;115.70;;;18.30;99.90;;;;;;5009941;28;20042;-68
2023/09/22 10:29:35;;;;;;;111.68;106.18;;;18.30;99.90;;;;;;5010056;28;20054;-68
2023/09/22 10:32:19;;;;;;;181.20;172.52;;;18.40;99.90;;;;;;5009770;28;20056;-68
2023/09/22 10:34:47;;;;;;;167.90;159.65;;;18.50;99.90;;;;;;5010166;28;20049;-68
2023/09/22 10:37:15;;;;;;;123.53;117.38;;;18.50;99.90;;;;;;4993302;28;20045;-68
2023/09/22 10:39:52;;;;;;;227.02;216.07;;;18.60;99.90;;;;;;5009728;28;20085;-68
2023/09/22 10:42:20;;;;;;;135.30;128.77;;;18.70;99.90;;;;;;5009716;28;20042;-68
2023/09/22 10:44:56;;;;;;;111.30;105.60;;;18.60;99.90;;;;;;5010316;28;20169;-68
2023/09/22 10:47:22;;;;;;;126.45;120.28;;;18.50;99.90;;;;;;5009034;28;20381;-68
2023/09/22 10:49:49;;;;;;;112.72;107.28;;;18.50;99.90;;;;;;5010417;28;20065;-68
2023/09/22 10:52:17;;;;;;;82.75;78.57;;;18.60;99.90;;;;;;5010117;28;20026;-69
2023/09/22 10:54:43;;;;;;;197.02;187.50;;;18.70;99.90;;;;;;5023610;28;20045;-68
2023/09/22 10:57:23;;;;;;;188.35;179.27;;;18.60;99.90;;;;;;5051919;28;20029;-68
2023/09/22 10:59:49;;;;;;;195.48;185.88;;;18.60;99.90;;;;;;5050110;28;20060;-73
2023/09/22 11:02:25;;;;;;;117.45;111.75;;;18.70;99.90;;;;;;5051502;28;20036;-73
2023/09/22 11:04:51;;;;;;;146.75;139.77;;;18.80;99.90;;;;;;5051811;28;20037;-72
2023/09/22 11:07:32;;;;;;;201.75;191.65;;;18.70;99.90;;;;;;5051895;28;20033;-73
2023/09/22 11:09:59;;;;;;;143.05;136.15;;;18.80;99.90;;;;;;5052028;28;20041;-71
2023/09/22 11:12:29;;;;;;;156.00;148.25;;;18.90;99.90;;;;;;5051437;28;20037;-71
2023/09/22 11:14:55;;;;;;;114.15;108.63;;;18.90;99.90;;;;;;5051675;28;20041;-73
2023/09/22 11:17:22;;;;;;;115.75;110.18;;;18.90;99.90;;;;;;5051388;28;20040;-73
2023/09/22 11:19:52;;;;;;;112.20;106.63;;;19.10;99.90;;;;;;5052071;28;20025;-74
2023/09/22 11:22:19;;;;;;;109.80;104.60;;;19.20;99.90;;;;;;5050655;28;20017;-71
2023/09/22 11:24:46;;;;;;;105.30;100.10;;;19.20;99.90;;;;;;5050797;28;20460;-71
2023/09/22 11:27:12;;;;;;;140.00;133.05;;;19.20;99.90;;;;;;5050384;28;20052;-71
2023/09/22 11:29:39;;;;;;;122.72;116.88;;;19.30;99.90;;;;;;5051315;28;20048;-73
2023/09/22 11:32:08;;;;;;;119.88;114.13;;;19.40;99.90;;;;;;5051398;28;20096;-73
2023/09/22 11:34:47;;;;;;;101.03;96.15;;;19.50;99.90;;;;;;5051702;28;20060;-71
2023/09/22 11:37:13;;;;;;;139.77;133.10;;;19.60;99.90;;;;;;5051508;28;20033;-71
2023/09/22 11:39:39;;;;;;;128.15;121.90;;;19.70;99.90;;;;;;5051883;28;20035;-71
2023/09/22 11:42:05;;;;;;;161.57;153.73;;;19.70;99.90;;;;;;5052004;28;20021;-71
2023/09/22 11:44:32;;;;;;;119.72;113.82;;;19.80;99.90;;;;;;5051397;28;20029;-71
2023/09/22 11:46:59;;;;;;;92.20;87.68;;;19.90;99.90;;;;;;5051370;28;20041;-71
2023/09/22 11:49:37;;;;;;;124.88;118.90;;;19.80;99.90;;;;;;5055585;28;20045;-71
2023/09/22 11:52:04;;;;;;;130.70;124.40;;;19.60;99.90;;;;;;5055020;28;20037;-73
2023/09/22 11:54:33;;;;;;;174.98;165.82;;;19.50;99.90;;;;;;5054788;28;20041;-73
2023/09/22 11:56:59;;;;;;;211.48;200.82;;;19.40;99.90;;;;;;5055253;28;20482;-73
2023/09/22 11:59:31;;;;;;;109.68;104.45;;;19.40;99.90;;;;;;5054946;28;20040;-73
2023/09/22 12:01:58;;;;;;;119.97;114.18;;;19.40;99.90;;;;;;5055396;28;20072;-71
2023/09/22 12:04:24;;;;;;;156.52;148.93;;;19.40;99.90;;;;;;5055126;28;20357;-70
2023/09/22 12:06:50;;;;;;;139.93;133.20;;;19.40;99.90;;;;;;5055189;28;20472;-71
2023/09/22 12:09:17;;;;;;;143.10;136.15;;;19.30;99.90;;;;;;5055038;28;20039;-73
2023/09/22 12:11:43;;;;;;;148.65;141.50;;;19.10;99.90;;;;;;5054407;28;20033;-72
2023/09/22 12:14:10;;;;;;;125.45;119.28;;;19.20;99.90;;;;;;5054964;28;20411;-68
2023/09/22 12:16:36;;;;;;;147.68;140.68;;;19.30;99.90;;;;;;5054318;28;20483;-68
2023/09/22 12:19:04;;;;;;;116.40;110.88;;;19.30;99.90;;;;;;5054861;28;20387;-68
2023/09/22 12:21:30;;;;;;;94.35;89.50;;;19.40;99.90;;;;;;5054723;28;20395;-68
2023/09/22 12:23:56;;;;;;;104.85;99.85;;;19.50;99.90;;;;;;5054806;28;20036;-68